Time;durP1;ratioP1;P1;durP2;ratioP2;P2;SDS_P1;SDS_P2;PMS_P1;PMS_P2;Temp;Humidity;BMP_temperature;BMP_pressure;BME280_temperature;BME280_humidity;BME280_pressure;Samples;Min_cycle;Max_cycle;Signal;HPM_P1;HPM_P2
2021/07/21 00:00:48;;;;;;;3.63;2.53;;;18.90;59.60;;;;;;4992839;28;20105;-79
2021/07/21 00:03:13;;;;;;;3.28;2.53;;;18.90;59.90;;;;;;4994214;28;20042;-78
2021/07/21 00:05:43;;;;;;;3.35;2.50;;;18.80;60.00;;;;;;4992813;28;20035;-80
2021/07/21 00:08:09;;;;;;;4.50;2.75;;;18.80;60.30;;;;;;4989999;28;20055;-80
2021/07/21 00:10:35;;;;;;;5.95;2.97;;;18.80;60.60;;;;;;4993135;28;20026;-80
2021/07/21 00:16:06;;;;;;;5.05;2.67;;;18.80;61.00;;;;;;4987524;28;20560;-79
2021/07/21 00:21:08;;;;;;;4.13;2.67;;;18.80;61.40;;;;;;4993346;28;20026;-80
2021/07/21 00:23:35;;;;;;;4.13;2.90;;;18.80;61.60;;;;;;4993775;28;20401;-81
2021/07/21 00:26:01;;;;;;;4.32;2.78;;;18.80;61.80;;;;;;4987122;28;20027;-80
2021/07/21 00:28:30;;;;;;;4.03;2.67;;;18.70;61.80;;;;;;4992510;28;20026;-77
2021/07/21 00:30:56;;;;;;;4.18;2.88;;;18.70;61.90;;;;;;4992508;28;20065;-76
2021/07/21 00:33:23;;;;;;;4.88;2.90;;;18.70;62.00;;;;;;4993081;28;20073;-76
2021/07/21 00:35:49;;;;;;;3.70;2.47;;;18.70;62.10;;;;;;4992642;28;20503;-77
2021/07/21 00:38:15;;;;;;;3.58;2.50;;;18.60;62.30;;;;;;4992605;28;20058;-76
2021/07/21 00:40:41;;;;;;;4.32;2.83;;;18.50;62.60;;;;;;4991730;28;20026;-76
2021/07/21 00:43:07;;;;;;;4.18;2.55;;;18.40;63.40;;;;;;4992457;28;20018;-77
2021/07/21 00:45:32;;;;;;;3.53;2.70;;;18.50;63.00;;;;;;4992219;28;20034;-75
2021/07/21 00:47:58;;;;;;;3.42;2.50;;;18.50;63.00;;;;;;4992054;28;20061;-76
2021/07/21 00:50:23;;;;;;;4.70;2.80;;;18.50;63.00;;;;;;4992130;28;20492;-76
2021/07/21 00:52:50;;;;;;;3.20;2.30;;;18.40;63.00;;;;;;4992674;28;20037;-76
2021/07/21 00:55:17;;;;;;;4.15;2.83;;;18.40;63.10;;;;;;4992564;28;20026;-76
2021/07/21 00:57:43;;;;;;;3.33;2.60;;;18.40;63.20;;;;;;4992750;28;20053;-76
2021/07/21 01:00:14;;;;;;;3.63;2.63;;;18.30;63.40;;;;;;4992658;28;20022;-77
2021/07/21 01:02:40;;;;;;;3.22;2.42;;;18.40;63.40;;;;;;4987444;28;20030;-76
2021/07/21 01:05:13;;;;;;;4.10;2.70;;;18.30;63.40;;;;;;4992455;28;20022;-75
2021/07/21 01:07:43;;;;;;;3.67;2.80;;;18.30;63.50;;;;;;4979658;28;20065;-76
2021/07/21 01:10:09;;;;;;;4.03;2.63;;;18.30;63.50;;;;;;4992415;28;20397;-76
2021/07/21 01:12:58;;;;;;;3.63;2.50;;;18.30;63.40;;;;;;4991515;28;20042;-76
2021/07/21 01:15:38;;;;;;;3.10;2.22;;;18.30;63.30;;;;;;4992777;28;20030;-76
2021/07/21 01:18:10;;;;;;;4.80;2.63;;;18.20;63.20;;;;;;4991777;28;20081;-75
2021/07/21 01:20:54;;;;;;;3.97;2.42;;;18.30;63.10;;;;;;4992698;28;20404;-75
2021/07/21 01:23:41;;;;;;;3.70;2.72;;;18.30;63.00;;;;;;4991931;28;20522;-75
2021/07/21 01:26:12;;;;;;;4.05;2.70;;;18.20;62.90;;;;;;4991849;28;20044;-76
2021/07/21 01:28:42;;;;;;;3.58;2.65;;;18.20;62.90;;;;;;4984794;28;20018;-75
2021/07/21 01:31:11;;;;;;;3.58;2.30;;;18.20;62.90;;;;;;4991396;28;20488;-75
2021/07/21 01:33:39;;;;;;;4.53;2.90;;;18.20;62.80;;;;;;4987055;28;20085;-75
2021/07/21 01:36:13;;;;;;;3.75;2.72;;;18.20;62.90;;;;;;4988278;28;20097;-75
2021/07/21 01:38:48;;;;;;;4.03;2.78;;;18.20;63.00;;;;;;4991929;28;20037;-76
2021/07/21 01:41:18;;;;;;;4.22;2.90;;;18.20;63.00;;;;;;4991918;28;20572;-76
2021/07/21 01:43:47;;;;;;;3.72;2.67;;;18.20;62.90;;;;;;4992091;28;20049;-76
2021/07/21 01:46:14;;;;;;;3.90;2.83;;;18.20;62.80;;;;;;4990686;28;20121;-74
2021/07/21 01:48:43;;;;;;;3.90;2.50;;;18.20;62.70;;;;;;4984720;28;20086;-76
2021/07/21 01:51:10;;;;;;;4.05;2.50;;;18.20;62.60;;;;;;4991615;28;20069;-77
2021/07/21 01:53:37;;;;;;;4.43;2.65;;;18.20;62.50;;;;;;4991866;28;20042;-78
2021/07/21 01:56:09;;;;;;;3.63;2.80;;;18.20;62.50;;;;;;4992100;28;20109;-76
2021/07/21 01:58:36;;;;;;;3.72;2.70;;;18.20;62.60;;;;;;4991078;28;20030;-76
2021/07/21 02:01:06;;;;;;;3.83;2.53;;;18.10;62.50;;;;;;4991637;28;20077;-76
2021/07/21 02:03:34;;;;;;;4.15;3.22;;;18.10;62.60;;;;;;4991409;28;20034;-76
2021/07/21 02:06:02;;;;;;;4.07;2.72;;;18.10;63.30;;;;;;4991409;28;20444;-77
2021/07/21 02:08:29;;;;;;;4.32;2.80;;;18.10;62.80;;;;;;4991717;28;20030;-77
2021/07/21 02:10:58;;;;;;;5.75;3.20;;;18.10;62.90;;;;;;4991393;28;20030;-77
2021/07/21 02:13:26;;;;;;;7.07;4.68;;;18.10;63.20;;;;;;4986193;28;20136;-77
2021/07/21 02:15:52;;;;;;;5.18;3.92;;;18.10;63.90;;;;;;4991696;28;20101;-78
2021/07/21 02:18:19;;;;;;;6.43;3.90;;;18.10;64.00;;;;;;4991233;28;20122;-76
2021/07/21 02:20:46;;;;;;;5.95;4.13;;;18.10;64.20;;;;;;4991233;28;20627;-76
2021/07/21 02:23:14;;;;;;;4.82;3.05;;;18.10;64.60;;;;;;4991447;28;20393;-77
2021/07/21 02:25:41;;;;;;;6.93;4.57;;;18.10;64.70;;;;;;4987326;28;20031;-76
2021/07/21 02:28:07;;;;;;;6.25;4.70;;;18.10;65.10;;;;;;4984844;28;20015;-77
2021/07/21 02:30:33;;;;;;;6.20;3.60;;;18.10;65.50;;;;;;4991459;28;20041;-76
2021/07/21 02:33:22;;;;;;;5.95;4.10;;;18.10;65.70;;;;;;4984472;28;20035;-76
2021/07/21 02:35:48;;;;;;;6.13;4.28;;;18.10;65.90;;;;;;4983954;28;20093;-76
2021/07/21 02:38:13;;;;;;;6.53;4.07;;;18.10;67.00;;;;;;4982826;28;20034;-77
2021/07/21 02:40:41;;;;;;;5.72;4.00;;;18.10;66.40;;;;;;4990947;28;20033;-76
2021/07/21 02:43:06;;;;;;;6.57;4.40;;;18.10;66.50;;;;;;4991453;28;20030;-76
2021/07/21 02:45:32;;;;;;;6.45;4.38;;;18.10;66.70;;;;;;4979803;28;20031;-79
2021/07/21 02:47:58;;;;;;;5.72;3.83;;;18.10;66.80;;;;;;4987636;28;20046;-76
2021/07/21 02:50:23;;;;;;;5.68;4.20;;;18.10;66.70;;;;;;4990928;28;20138;-76
2021/07/21 02:53:11;;;;;;;5.90;4.05;;;18.10;66.90;;;;;;4991343;28;20074;-76
2021/07/21 02:55:50;;;;;;;6.85;4.70;;;18.10;66.90;;;;;;4990807;28;20026;-78
2021/07/21 02:58:39;;;;;;;7.07;4.57;;;18.00;67.40;;;;;;4990071;28;20428;-76
2021/07/21 03:01:06;;;;;;;6.72;4.65;;;18.00;67.30;;;;;;4983600;28;20043;-76
2021/07/21 03:03:35;;;;;;;5.82;4.40;;;18.00;67.70;;;;;;4991139;28;20515;-76
2021/07/21 03:06:06;;;;;;;4.97;3.42;;;18.00;67.50;;;;;;4989546;28;20034;-75
2021/07/21 03:08:32;;;;;;;7.45;5.00;;;18.10;67.40;;;;;;4991756;28;20038;-77
2021/07/21 03:10:59;;;;;;;5.20;3.95;;;18.10;67.60;;;;;;4990999;28;20512;-75
2021/07/21 03:13:50;;;;;;;6.20;3.97;;;18.10;67.50;;;;;;4990649;28;20035;-76
2021/07/21 03:16:17;;;;;;;5.45;3.83;;;18.10;67.70;;;;;;4993324;28;20034;-76
2021/07/21 03:18:47;;;;;;;7.07;4.90;;;18.10;67.50;;;;;;4993221;28;20504;-76
2021/07/21 03:21:13;;;;;;;6.82;4.90;;;18.10;67.70;;;;;;4993413;28;20063;-76
2021/07/21 03:23:40;;;;;;;4.93;3.47;;;18.10;67.90;;;;;;4994331;28;20023;-75
2021/07/21 03:26:07;;;;;;;6.43;4.40;;;18.00;67.90;;;;;;4991909;28;20449;-76
2021/07/21 03:28:34;;;;;;;7.13;4.78;;;18.00;68.10;;;;;;4986234;28;20031;-77
2021/07/21 03:31:01;;;;;;;6.75;5.00;;;18.00;68.20;;;;;;4993645;28;20039;-75
2021/07/21 03:33:28;;;;;;;7.32;4.90;;;18.00;67.90;;;;;;4994150;28;20092;-76
2021/07/21 03:36:00;;;;;;;6.72;4.50;;;18.00;68.10;;;;;;4990708;28;20507;-77
2021/07/21 03:38:27;;;;;;;6.93;4.45;;;18.00;68.20;;;;;;4993797;28;20062;-76
2021/07/21 03:40:53;;;;;;;5.50;3.75;;;18.00;68.30;;;;;;4994117;28;20037;-77
2021/07/21 03:43:21;;;;;;;5.70;3.97;;;18.00;68.20;;;;;;4994495;28;20022;-77
2021/07/21 03:45:48;;;;;;;5.70;3.72;;;18.00;68.10;;;;;;4992216;28;20477;-77
2021/07/21 03:48:13;;;;;;;7.00;4.18;;;18.00;68.00;;;;;;4982554;28;20429;-78
2021/07/21 03:50:39;;;;;;;5.40;3.60;;;18.00;68.00;;;;;;4990167;28;20028;-77
2021/07/21 03:53:06;;;;;;;5.38;3.63;;;18.00;67.90;;;;;;4994009;28;20396;-77
2021/07/21 03:55:37;;;;;;;5.40;3.70;;;18.00;67.80;;;;;;4993120;28;20030;-77
2021/07/21 03:58:02;;;;;;;5.60;3.80;;;18.10;67.70;;;;;;4993538;28;20510;-77
2021/07/21 04:00:28;;;;;;;6.45;3.80;;;18.10;67.80;;;;;;4991862;28;20158;-77
2021/07/21 04:02:57;;;;;;;5.03;3.78;;;18.10;67.90;;;;;;4993682;28;20117;-79
2021/07/21 04:05:25;;;;;;;7.15;4.82;;;18.10;68.00;;;;;;4986286;28;20078;-77
2021/07/21 04:07:52;;;;;;;7.47;4.28;;;18.10;68.10;;;;;;4989584;28;20534;-79
2021/07/21 04:10:18;;;;;;;6.60;4.20;;;18.10;68.10;;;;;;4987519;28;20133;-77
2021/07/21 04:12:47;;;;;;;5.20;3.75;;;18.10;68.10;;;;;;4988438;28;20041;-77
2021/07/21 04:15:13;;;;;;;8.75;5.03;;;18.10;68.10;;;;;;4987388;28;20109;-77
2021/07/21 04:17:40;;;;;;;5.55;3.50;;;18.10;68.20;;;;;;4992880;28;20429;-77
2021/07/21 04:20:07;;;;;;;6.47;4.10;;;18.10;68.20;;;;;;4992023;28;20019;-77
2021/07/21 04:22:34;;;;;;;5.65;3.78;;;18.10;68.30;;;;;;4988685;28;20441;-77
2021/07/21 04:25:01;;;;;;;8.45;4.10;;;18.10;68.20;;;;;;4991772;28;20018;-79
2021/07/21 04:27:28;;;;;;;5.75;4.00;;;18.10;68.20;;;;;;4987838;28;20034;-78
2021/07/21 04:29:54;;;;;;;5.20;3.83;;;18.20;68.20;;;;;;4991250;28;20657;-78
2021/07/21 04:32:22;;;;;;;5.38;3.60;;;18.10;68.10;;;;;;4990236;28;20031;-78
2021/07/21 04:34:48;;;;;;;5.85;4.10;;;18.10;68.00;;;;;;4993534;28;20109;-78
2021/07/21 04:37:15;;;;;;;6.35;4.43;;;18.20;68.00;;;;;;4983365;28;20026;-79
2021/07/21 04:39:42;;;;;;;7.05;4.22;;;18.20;68.00;;;;;;4991451;28;20034;-78
2021/07/21 04:42:08;;;;;;;4.72;3.53;;;18.20;68.00;;;;;;4991156;28;20026;-79
2021/07/21 04:44:37;;;;;;;4.80;3.65;;;18.20;67.90;;;;;;4991232;28;20026;-78
2021/07/21 04:47:03;;;;;;;4.55;3.65;;;18.20;67.80;;;;;;4992393;28;20026;-78
2021/07/21 04:49:28;;;;;;;5.43;3.55;;;18.20;67.70;;;;;;4992649;28;20019;-79
2021/07/21 04:51:59;;;;;;;4.90;3.50;;;18.30;67.60;;;;;;4992368;28;20045;-78
2021/07/21 04:54:24;;;;;;;5.22;3.80;;;18.30;67.60;;;;;;4992520;28;20445;-79
2021/07/21 04:56:50;;;;;;;6.60;4.25;;;18.40;67.50;;;;;;4990870;28;20046;-79
2021/07/21 04:59:15;;;;;;;6.75;4.10;;;18.40;67.40;;;;;;4974800;28;20034;-79
2021/07/21 05:01:41;;;;;;;4.82;3.47;;;18.40;67.40;;;;;;4985855;28;20385;-77
2021/07/21 05:04:07;;;;;;;5.07;3.58;;;18.50;67.40;;;;;;4986875;28;20033;-78
2021/07/21 05:06:32;;;;;;;6.25;3.90;;;18.50;67.30;;;;;;4987258;28;20477;-79
2021/07/21 05:08:58;;;;;;;5.22;3.70;;;18.50;67.20;;;;;;4984148;28;20432;-78
2021/07/21 05:11:24;;;;;;;5.40;3.70;;;18.60;67.20;;;;;;4987435;28;20497;-79
2021/07/21 05:13:50;;;;;;;5.53;3.83;;;18.60;67.20;;;;;;4993504;28;20030;-79
2021/07/21 05:16:15;;;;;;;5.60;3.97;;;18.60;67.40;;;;;;4985404;28;20094;-80
2021/07/21 05:18:42;;;;;;;6.10;3.88;;;18.60;67.40;;;;;;4985827;28;20038;-79
2021/07/21 05:21:08;;;;;;;6.47;3.70;;;18.70;67.50;;;;;;4981800;28;20053;-79
2021/07/21 05:23:34;;;;;;;5.63;3.53;;;18.70;67.40;;;;;;4983429;28;20745;-78
2021/07/21 05:26:00;;;;;;;6.75;4.10;;;18.80;67.40;;;;;;4991448;28;20026;-78
2021/07/21 05:28:27;;;;;;;5.85;3.97;;;18.80;67.40;;;;;;4979591;28;20037;-78
2021/07/21 05:30:53;;;;;;;5.53;4.00;;;18.90;67.30;;;;;;4979354;28;20498;-78
2021/07/21 05:33:19;;;;;;;11.40;4.72;;;18.90;67.20;;;;;;4976985;28;20560;-79
2021/07/21 05:35:44;;;;;;;6.70;4.00;;;19.00;67.20;;;;;;4983848;28;20045;-78
2021/07/21 05:38:11;;;;;;;7.15;4.13;;;19.00;67.40;;;;;;4988989;28;20032;-78
2021/07/21 05:40:36;;;;;;;5.57;3.70;;;19.00;67.30;;;;;;4983436;28;20396;-78
2021/07/21 05:43:02;;;;;;;8.18;4.93;;;19.10;67.20;;;;;;4994046;28;20105;-79
2021/07/21 05:45:28;;;;;;;7.57;4.47;;;19.20;67.20;;;;;;4984026;28;20057;-78
2021/07/21 05:47:53;;;;;;;5.72;3.92;;;19.20;67.10;;;;;;4976668;28;20068;-77
2021/07/21 05:50:19;;;;;;;6.22;4.03;;;19.30;67.10;;;;;;4989292;28;20019;-78
2021/07/21 05:52:44;;;;;;;4.93;3.70;;;19.30;67.00;;;;;;4984766;28;20038;-78
2021/07/21 05:55:11;;;;;;;4.40;2.78;;;19.30;66.80;;;;;;4993654;28;20076;-78
2021/07/21 05:57:36;;;;;;;6.53;4.57;;;19.40;66.80;;;;;;4986992;28;20030;-78
2021/07/21 06:00:05;;;;;;;5.25;3.83;;;19.40;66.90;;;;;;4980217;28;20034;-78
2021/07/21 06:02:30;;;;;;;5.15;3.72;;;19.40;66.90;;;;;;4984464;28;20073;-79
2021/07/21 06:04:56;;;;;;;6.80;4.45;;;19.40;66.80;;;;;;4976637;28;20050;-77
2021/07/21 06:07:21;;;;;;;9.70;6.28;;;19.40;66.90;;;;;;4995979;28;20046;-77
2021/07/21 06:09:47;;;;;;;6.35;4.15;;;19.40;67.30;;;;;;4989859;28;20026;-79
2021/07/21 06:12:12;;;;;;;6.20;4.45;;;19.40;67.30;;;;;;4995710;28;20050;-79
2021/07/21 06:14:38;;;;;;;9.00;6.13;;;19.40;67.20;;;;;;4984833;28;20026;-78
2021/07/21 06:17:04;;;;;;;6.55;5.03;;;19.40;67.50;;;;;;4993169;28;20382;-78
2021/07/21 06:19:29;;;;;;;8.38;6.05;;;19.40;67.50;;;;;;4994982;28;20412;-79
2021/07/21 06:22:00;;;;;;;11.60;7.65;;;19.40;67.80;;;;;;4982798;28;20037;-79
2021/07/21 06:24:25;;;;;;;8.98;5.60;;;19.30;68.10;;;;;;4984938;28;20057;-79
2021/07/21 06:26:50;;;;;;;9.10;6.50;;;19.20;68.40;;;;;;4987722;28;20509;-78
2021/07/21 06:29:16;;;;;;;9.18;6.35;;;19.10;68.60;;;;;;4984657;28;20039;-78
2021/07/21 06:31:41;;;;;;;8.18;5.47;;;19.10;68.90;;;;;;4984894;28;20026;-78
2021/07/21 06:34:07;;;;;;;9.07;6.03;;;19.10;68.90;;;;;;4983446;28;20408;-80
2021/07/21 06:36:32;;;;;;;7.43;4.68;;;19.10;68.90;;;;;;4980371;28;20039;-79
2021/07/21 06:38:58;;;;;;;7.45;4.80;;;19.20;69.00;;;;;;4985727;28;20030;-78
2021/07/21 06:41:23;;;;;;;7.55;5.50;;;19.20;69.00;;;;;;4991055;28;20531;-79
2021/07/21 06:43:52;;;;;;;7.43;5.32;;;19.20;69.20;;;;;;4984507;28;20045;-79
2021/07/21 06:46:18;;;;;;;7.63;5.00;;;19.20;69.30;;;;;;4984856;28;20033;-79
2021/07/21 06:48:44;;;;;;;11.23;7.45;;;19.30;69.10;;;;;;4987938;28;20030;-78
2021/07/21 06:51:09;;;;;;;8.15;5.75;;;19.30;69.40;;;;;;4992562;28;20061;-79
2021/07/21 06:53:35;;;;;;;9.23;5.55;;;19.30;69.50;;;;;;4986382;28;20072;-78
2021/07/21 06:56:00;;;;;;;10.20;6.75;;;19.30;69.50;;;;;;4991833;28;20073;-78
2021/07/21 06:58:26;;;;;;;8.07;5.28;;;19.40;70.00;;;;;;4994265;28;20034;-78
2021/07/21 07:00:52;;;;;;;9.48;6.25;;;19.40;69.20;;;;;;5000943;28;20024;-78
2021/07/21 07:03:18;;;;;;;10.07;6.38;;;19.30;69.50;;;;;;4986977;28;20109;-79
2021/07/21 07:05:44;;;;;;;9.50;6.85;;;19.30;69.80;;;;;;4984639;28;20026;-78
2021/07/21 07:08:09;;;;;;;9.88;6.32;;;19.30;70.00;;;;;;4987726;28;20026;-78
2021/07/21 07:10:35;;;;;;;7.25;4.90;;;19.40;69.70;;;;;;4989501;28;20379;-78
2021/07/21 07:13:01;;;;;;;9.45;6.70;;;19.50;69.40;;;;;;4987192;28;20043;-78
2021/07/21 07:15:26;;;;;;;9.45;6.85;;;19.50;69.40;;;;;;4990583;28;20027;-78
2021/07/21 07:17:52;;;;;;;7.60;5.22;;;19.50;69.60;;;;;;4990260;28;20038;-77
2021/07/21 07:20:18;;;;;;;12.40;6.90;;;19.70;69.40;;;;;;4982559;28;20023;-78
2021/07/21 07:22:43;;;;;;;11.43;6.32;;;19.70;69.10;;;;;;4980730;28;20041;-78
2021/07/21 07:25:09;;;;;;;8.57;5.63;;;19.80;68.70;;;;;;4982510;28;20062;-78
2021/07/21 07:27:35;;;;;;;5.85;3.65;;;19.90;68.30;;;;;;4986315;28;20051;-78
2021/07/21 07:30:01;;;;;;;7.60;5.40;;;20.00;68.00;;;;;;4987824;28;20031;-78
2021/07/21 07:32:26;;;;;;;11.77;6.97;;;20.00;67.80;;;;;;4988053;28;20052;-77
2021/07/21 07:34:52;;;;;;;7.03;5.38;;;20.10;67.60;;;;;;4989078;28;20055;-77
2021/07/21 07:37:18;;;;;;;10.90;6.32;;;20.10;67.40;;;;;;4986843;28;20105;-77
2021/07/21 07:39:44;;;;;;;8.50;6.07;;;20.20;67.40;;;;;;4989190;28;20568;-76
2021/07/21 07:42:10;;;;;;;8.32;4.80;;;20.20;67.60;;;;;;4985700;28;20503;-77
2021/07/21 07:44:35;;;;;;;10.68;6.68;;;20.20;67.50;;;;;;4987609;28;20054;-75
2021/07/21 07:47:02;;;;;;;9.38;6.35;;;20.20;67.90;;;;;;4988931;28;20030;-76
2021/07/21 07:49:28;;;;;;;8.52;5.80;;;20.20;67.90;;;;;;4987869;28;20030;-77
2021/07/21 07:51:53;;;;;;;8.40;5.93;;;20.30;68.20;;;;;;4987437;28;20034;-78
2021/07/21 07:54:20;;;;;;;9.75;6.45;;;20.40;67.20;;;;;;4992533;28;20027;-77
2021/07/21 07:56:46;;;;;;;8.80;6.13;;;20.50;66.80;;;;;;4988237;28;20081;-78
2021/07/21 07:59:12;;;;;;;10.65;7.28;;;20.60;66.40;;;;;;4990068;28;20036;-78
2021/07/21 08:01:37;;;;;;;8.88;4.85;;;20.60;66.10;;;;;;4988991;28;20027;-78
2021/07/21 08:04:03;;;;;;;7.90;5.80;;;20.70;65.80;;;;;;4988184;28;20440;-75
2021/07/21 08:06:28;;;;;;;13.60;7.60;;;20.80;65.80;;;;;;4983505;28;20084;-77
2021/07/21 08:08:54;;;;;;;9.23;6.15;;;20.80;65.80;;;;;;4987947;28;20060;-77
2021/07/21 08:11:20;;;;;;;10.07;7.15;;;20.80;65.80;;;;;;4982062;28;20030;-77
2021/07/21 08:13:46;;;;;;;8.68;5.97;;;20.90;65.80;;;;;;4988189;28;20033;-76
2021/07/21 08:16:12;;;;;;;9.95;6.68;;;20.90;65.90;;;;;;4985350;28;20051;-77
2021/07/21 08:18:38;;;;;;;9.68;6.50;;;20.90;65.70;;;;;;4989231;28;20371;-77
2021/07/21 08:21:04;;;;;;;6.57;4.63;;;21.10;65.70;;;;;;4986758;28;20052;-77
2021/07/21 08:23:31;;;;;;;8.52;5.55;;;21.30;65.40;;;;;;4986134;28;20023;-76
2021/07/21 08:25:57;;;;;;;8.10;5.25;;;21.60;64.90;;;;;;4979685;28;20670;-79
2021/07/21 08:28:23;;;;;;;9.80;6.00;;;21.90;64.30;;;;;;4982262;28;20035;-79
2021/07/21 08:30:49;;;;;;;8.75;6.45;;;22.20;63.50;;;;;;4987034;28;20084;-78
2021/07/21 08:33:14;;;;;;;8.73;5.38;;;22.30;62.60;;;;;;4990524;28;20069;-79
2021/07/21 08:35:41;;;;;;;8.88;5.90;;;22.40;62.30;;;;;;4984989;28;20038;-80
2021/07/21 08:38:07;;;;;;;8.10;5.30;;;22.60;61.40;;;;;;4986936;28;20034;-77
2021/07/21 08:40:32;;;;;;;8.57;6.15;;;22.70;61.00;;;;;;4983298;28;20389;-76
2021/07/21 08:42:58;;;;;;;7.63;5.22;;;22.70;60.70;;;;;;4982509;28;21751;-77
2021/07/21 08:45:24;;;;;;;7.63;5.03;;;22.90;60.70;;;;;;4985696;28;20078;-76
2021/07/21 08:47:50;;;;;;;6.28;3.85;;;23.00;60.10;;;;;;4980784;28;20046;-72
2021/07/21 08:50:16;;;;;;;5.75;3.88;;;23.30;60.00;;;;;;4977408;28;20023;-75
2021/07/21 08:52:42;;;;;;;6.95;4.78;;;23.50;59.30;;;;;;4978006;28;20081;-74
2021/07/21 08:55:10;;;;;;;5.43;3.55;;;23.70;58.60;;;;;;4981648;28;20035;-74
2021/07/21 08:57:37;;;;;;;6.13;3.22;;;23.80;58.30;;;;;;4981860;28;20122;-77
2021/07/21 09:00:13;;;;;;;5.43;3.80;;;24.00;57.80;;;;;;4978532;28;20595;-77
2021/07/21 09:02:39;;;;;;;6.45;4.32;;;24.10;57.30;;;;;;4978590;28;20157;-77
2021/07/21 09:05:06;;;;;;;6.10;4.13;;;24.20;56.30;;;;;;4985835;28;20046;-76
2021/07/21 09:07:35;;;;;;;10.60;4.55;;;24.10;56.10;;;;;;4980614;28;20027;-78
2021/07/21 09:10:00;;;;;;;7.80;4.35;;;24.20;55.90;;;;;;4973806;28;20465;-77
2021/07/21 09:12:26;;;;;;;7.65;4.22;;;24.30;55.80;;;;;;4981014;28;20133;-77
2021/07/21 09:14:52;;;;;;;5.95;3.97;;;24.20;53.80;;;;;;4983973;28;20490;-78
2021/07/21 09:17:21;;;;;;;5.72;4.18;;;24.20;53.90;;;;;;4989551;28;20037;-80
2021/07/21 09:19:51;;;;;;;6.88;3.67;;;24.30;53.60;;;;;;4982190;28;20390;-79
2021/07/21 09:22:18;;;;;;;5.18;3.60;;;24.40;53.80;;;;;;4983955;28;20084;-79
2021/07/21 09:24:46;;;;;;;4.70;3.40;;;24.40;52.30;;;;;;4984006;28;20118;-80
2021/07/21 09:27:12;;;;;;;5.68;3.70;;;24.50;51.60;;;;;;4982700;28;20565;-78
2021/07/21 09:29:41;;;;;;;4.63;3.47;;;24.30;50.30;;;;;;4976824;28;20271;-79
2021/07/21 09:32:08;;;;;;;5.15;3.30;;;24.30;50.70;;;;;;4990535;28;20030;-78
2021/07/21 09:34:34;;;;;;;3.38;2.45;;;24.30;50.90;;;;;;4984701;28;20085;-79
2021/07/21 09:37:12;;;;;;;4.50;2.75;;;24.40;50.90;;;;;;4988729;28;20076;-79
2021/07/21 09:39:43;;;;;;;4.47;2.80;;;24.70;50.50;;;;;;4999268;28;20033;-79
2021/07/21 09:42:10;;;;;;;4.05;2.67;;;24.90;50.00;;;;;;4992270;28;20038;-78
2021/07/21 09:44:37;;;;;;;3.95;2.70;;;25.00;49.80;;;;;;4990325;28;20066;-78
2021/07/21 09:47:16;;;;;;;4.60;3.17;;;25.20;49.50;;;;;;4980408;28;20118;-78
2021/07/21 09:49:45;;;;;;;3.90;2.75;;;25.30;49.40;;;;;;4986180;28;20110;-78
2021/07/21 09:52:28;;;;;;;3.25;2.35;;;25.50;49.40;;;;;;4987467;28;20037;-78
2021/07/21 09:55:08;;;;;;;4.82;3.53;;;25.60;49.20;;;;;;4993762;28;20444;-77
2021/07/21 09:57:35;;;;;;;3.97;3.10;;;25.60;48.30;;;;;;4991216;28;20503;-80
2021/07/21 10:00:26;;;;;;;4.80;3.30;;;25.70;48.60;;;;;;4989734;28;20413;-79
2021/07/21 10:03:09;;;;;;;5.53;2.70;;;25.80;48.00;;;;;;4988414;28;20061;-78
2021/07/21 10:05:51;;;;;;;3.20;2.50;;;26.00;47.90;;;;;;4987173;28;20105;-79
2021/07/21 10:08:28;;;;;;;4.78;3.40;;;26.20;47.40;;;;;;4984454;28;20038;-78
2021/07/21 10:10:54;;;;;;;4.85;3.17;;;26.30;46.10;;;;;;4985363;28;20485;-80
2021/07/21 10:13:20;;;;;;;5.13;3.38;;;26.10;45.80;;;;;;4982364;28;20142;-80
2021/07/21 10:15:47;;;;;;;5.00;3.28;;;25.90;44.90;;;;;;4983226;28;20172;-79
2021/07/21 10:18:15;;;;;;;3.47;2.60;;;25.80;45.60;;;;;;4985538;28;20030;-81
2021/07/21 10:20:42;;;;;;;3.33;2.50;;;25.90;45.90;;;;;;4986887;28;20033;-79
2021/07/21 10:23:09;;;;;;;5.05;3.15;;;25.90;45.90;;;;;;4989672;28;20149;-80
2021/07/21 10:25:36;;;;;;;4.40;2.97;;;25.90;45.70;;;;;;4987779;28;20030;-80
2021/07/21 10:28:05;;;;;;;4.60;3.00;;;25.60;45.70;;;;;;4996828;28;20104;-80
2021/07/21 10:30:33;;;;;;;3.63;2.70;;;25.80;46.20;;;;;;5002634;28;20105;-80
2021/07/21 10:32:59;;;;;;;4.90;3.60;;;25.80;45.80;;;;;;4996956;28;20038;-79
2021/07/21 10:35:27;;;;;;;5.10;3.40;;;25.50;45.50;;;;;;4992952;28;20026;-80
2021/07/21 10:37:53;;;;;;;3.60;2.70;;;25.30;46.00;;;;;;4992131;28;20453;-80
2021/07/21 10:40:26;;;;;;;5.82;3.80;;;25.50;46.50;;;;;;4984258;28;20500;-81
2021/07/21 10:42:54;;;;;;;4.38;3.28;;;25.50;45.80;;;;;;4997163;28;20040;-80
2021/07/21 10:45:30;;;;;;;5.18;3.53;;;25.50;45.80;;;;;;4998992;28;20034;-81
2021/07/21 10:48:03;;;;;;;6.25;4.20;;;25.50;45.90;;;;;;4990852;28;20030;-80
2021/07/21 10:59:11;;;;;;;7.05;3.95;;;25.60;45.90;;;;;;4993753;28;20117;-80
2021/07/21 11:01:41;;;;;;;6.82;4.13;;;25.50;45.70;;;;;;4992502;28;20409;-77
2021/07/21 11:04:07;;;;;;;3.95;3.17;;;25.50;46.00;;;;;;4987877;28;20612;-76
2021/07/21 11:06:41;;;;;;;6.10;3.95;;;25.60;45.80;;;;;;4990609;28;20026;-78
2021/07/21 11:09:28;;;;;;;5.03;3.40;;;25.70;45.80;;;;;;4992473;28;20069;-79
2021/07/21 11:11:58;;;;;;;6.13;4.70;;;25.90;45.90;;;;;;4988946;28;20066;-81
2021/07/21 11:14:27;;;;;;;5.43;4.00;;;26.10;44.80;;;;;;4988216;28;20041;-78
2021/07/21 11:16:55;;;;;;;7.05;4.93;;;26.20;44.80;;;;;;4991010;28;20026;-77
2021/07/21 11:19:29;;;;;;;5.38;3.72;;;26.20;44.00;;;;;;4995153;28;20764;-77
2021/07/21 11:21:57;;;;;;;3.53;2.90;;;26.30;44.10;;;;;;4987955;28;20434;-78
2021/07/21 11:24:22;;;;;;;4.82;3.70;;;26.60;44.20;;;;;;4987960;28;20547;-76
2021/07/21 11:26:52;;;;;;;5.03;3.90;;;26.50;43.50;;;;;;4991193;28;20052;-78
2021/07/21 11:29:24;;;;;;;5.25;4.10;;;26.20;43.90;;;;;;4986355;28;20763;-81
2021/07/21 11:31:49;;;;;;;5.18;3.58;;;26.10;44.00;;;;;;4987237;28;20030;-78
2021/07/21 11:34:29;;;;;;;6.93;4.53;;;26.10;44.60;;;;;;4983799;28;20447;-75
2021/07/21 11:37:02;;;;;;;6.28;3.92;;;26.10;44.00;;;;;;4985694;28;20015;-78
2021/07/21 11:39:44;;;;;;;4.20;3.20;;;26.10;44.50;;;;;;4994218;28;20507;-78
2021/07/21 11:42:40;;;;;;;;;;;26.30;44.70;;;;;;4988591;28;20508;-78
2021/07/21 11:45:06;;;;;;;4.68;3.30;;;26.40;44.70;;;;;;4987433;28;20032;-80
2021/07/21 11:47:43;;;;;;;4.35;3.30;;;26.60;44.70;;;;;;4986373;28;20117;-81
2021/07/21 11:50:17;;;;;;;4.65;3.00;;;26.70;44.60;;;;;;4984064;28;20474;-79
2021/07/21 11:52:44;;;;;;;5.25;3.47;;;26.80;44.50;;;;;;4986248;28;20042;-77
2021/07/21 11:55:11;;;;;;;4.22;2.47;;;26.90;44.50;;;;;;4991929;28;20070;-80
2021/07/21 11:57:37;;;;;;;6.78;4.70;;;27.10;44.40;;;;;;4989106;28;20488;-80
2021/07/21 12:00:04;;;;;;;4.78;3.70;;;26.90;43.40;;;;;;4988480;28;20034;-79
2021/07/21 12:02:30;;;;;;;5.00;3.75;;;26.70;43.90;;;;;;4991293;28;20404;-81
2021/07/21 12:05:03;;;;;;;6.28;4.57;;;26.80;44.00;;;;;;4989116;28;20037;-79
2021/07/21 12:07:34;;;;;;;6.47;3.70;;;26.40;43.30;;;;;;4987329;28;20089;-76
2021/07/21 12:10:11;;;;;;;4.00;3.08;;;26.60;44.10;;;;;;4989499;28;20032;-77
2021/07/21 12:12:37;;;;;;;5.32;3.40;;;26.70;44.10;;;;;;4986653;28;20034;-79
2021/07/21 12:15:04;;;;;;;5.50;3.50;;;27.00;43.80;;;;;;4983917;28;20022;-78
2021/07/21 12:17:29;;;;;;;7.28;5.13;;;27.20;44.50;;;;;;4986762;28;20026;-78
2021/07/21 12:20:00;;;;;;;4.55;3.60;;;27.10;43.20;;;;;;4980678;28;20088;-78
2021/07/21 12:22:29;;;;;;;6.45;4.68;;;27.20;43.60;;;;;;4996469;28;20036;-79
2021/07/21 12:24:58;;;;;;;5.82;4.00;;;27.30;42.70;;;;;;4985676;28;20117;-83
2021/07/21 12:27:30;;;;;;;6.88;4.18;;;27.40;42.70;;;;;;4985194;28;20045;-78
2021/07/21 12:30:00;;;;;;;5.20;3.75;;;27.20;43.10;;;;;;5007525;28;20419;-76
2021/07/21 12:32:26;;;;;;;4.50;3.45;;;27.10;42.90;;;;;;4987990;28;20046;-76
2021/07/21 12:34:54;;;;;;;4.32;3.30;;;27.30;43.20;;;;;;4989438;28;20026;-78
2021/07/21 12:37:25;;;;;;;4.13;3.20;;;27.40;42.90;;;;;;4987566;28;20029;-76
2021/07/21 12:39:52;;;;;;;3.95;2.85;;;27.60;42.80;;;;;;5000946;28;20026;-78
2021/07/21 12:42:18;;;;;;;4.50;3.30;;;27.80;42.70;;;;;;4987788;28;20042;-77
2021/07/21 12:44:46;;;;;;;3.88;3.00;;;28.00;42.80;;;;;;4986066;28;20038;-79
2021/07/21 12:47:18;;;;;;;5.18;3.92;;;28.10;42.60;;;;;;4984541;28;20027;-80
2021/07/21 12:49:46;;;;;;;6.07;4.18;;;27.80;42.10;;;;;;4987131;28;20034;-78
2021/07/21 12:52:19;;;;;;;4.45;3.28;;;27.60;42.30;;;;;;4985300;28;20453;-76
2021/07/21 12:54:50;;;;;;;7.70;4.40;;;27.70;42.70;;;;;;4985827;28;20038;-78
2021/07/21 12:57:37;;;;;;;6.30;4.03;;;27.80;42.10;;;;;;4981088;28;20026;-77
2021/07/21 13:00:12;;;;;;;5.80;4.60;;;28.00;42.30;;;;;;4993487;28;20038;-77
2021/07/21 13:02:40;;;;;;;5.28;3.80;;;28.10;42.20;;;;;;4988232;28;20125;-77
2021/07/21 13:05:26;;;;;;;7.03;4.80;;;28.30;41.50;;;;;;4988723;28;20097;-77